x

South Hatteras - 225 South Of Cape Hatteras (41002) Wave Buoy

3:50pm - Thu 23rd Feb 2017 All times are EST. -5 hours from GMT.

  • Sig Wave height 9.2ft
  • Swell Direction
  • Peak Period 8s
  • Average Period 6s
  • Wind
    25mph, 31mph gusts
  • Sea Temp 70°f
  • Air Temp 69°f
  • Sea Pressure 1010.1mb
  • South Hatteras - 225 South Of Cape Hatteras
  • South Hatteras - 225 South Of Cape Hatteras

More Historic Weather Station data

Upgrade to MSW Pro to gain access to the past 30 days of data for over 8000 Wavebouys and Weather Stations around the globe.

Join Pro

Comparision Forecast

View Surf forecast
   
Thu 02/23 3:50pm 9ft 8s 6s 25 31 mph 1010.1mb 70f 69f
2:50pm 8.5ft 7s 6s 25 29 mph 1010.1mb 70f 69f
1:50pm 8ft 7s 6s 25 29 mph 1010.4mb 70f 69f
12:50pm 8ft 7s 6s 22 27 mph 1011.1mb 70f 69f
11:50am 7.5ft 7s 6s 22 27 mph 1012mb 70f 69f
10:50am 7ft 7s 6s 22 27 mph 1012.8mb 70f 69f
9:50am 7ft 7s 6s 25 29 mph 1013.1mb 70f 69f
8:50am 7ft 6s 5s 25 29 mph 1012.5mb 70f 68f
7:50am 6.5ft 6s 5s 25 29 mph 1012.4mb 70f 68f
6:50am 6ft 6s 5s 22 27 mph 1012.2mb 70f 68f
5:50am 6ft 6s 5s 22 27 mph 1011.6mb 70f 67f
Wed 02/22 4:50pm 5ft 11s 6s 16 20 mph 1014.7mb 70f 66f
3:50pm 5ft 9s 6s 16 20 mph 1014.6mb 70f 65f
2:50pm 4.5ft 9s 6s 16 18 mph 1014.8mb 70f 65f
1:50pm 5ft 9s 6s 16 18 mph 1015.1mb 70f 65f
12:50pm 4.5ft 9s 6s 16 22 mph 1016mb 70f 65f
11:50am 4.5ft 10s 6s 16 20 mph 1016.4mb 70f 64f
10:50am 5ft 8s 6s 13 16 mph 1017.2mb 70f 65f
9:50am 4.5ft 8s 6s 16 20 mph 1017.3mb 71f 65f
8:50am 5ft 9s 6s 13 16 mph 1017.6mb 71f 65f
7:50am 4.5ft 9s 6s 11 13 mph 1017.5mb 71f 64f
5:50am 4.5ft 8s 5s 13 18 mph 1017.2mb 71f 64f
4:50am 4.5ft 8s 6s 13 18 mph 1017.1mb 71f 64f
3:50am 5ft 8s 6s 11 18 mph 1017.1mb 71f 64f
2:50am 4.5ft 8s 6s 18 22 mph 1016.8mb 71f 64f
1:50am 5ft 8s 5s 11 13 mph 1018mb 71f 64f
12:50am 5ft 8s 6s 18 22 mph 1018.3mb 71f 64f
Tue 02/21 11:50pm 5ft 8s 6s 13 18 mph 1019.1mb 71f 64f
10:50pm 5ft 8s 6s 16 20 mph 1019.1mb 71f 64f
9:50pm 4.5ft 8s 6s 13 18 mph 1020.1mb 71f 64f
8:50pm 5ft 8s 6s 13 16 mph 1020.3mb 71f 64f
7:50pm 4.5ft 8s 5s 16 18 mph 1020.5mb 71f 64f
6:50pm 4.5ft 8s 5s 16 20 mph 1020.2mb 71f 65f
5:50pm 5ft 7s 5s 13 18 mph 1020.4mb 71f 65f
4:50pm 5ft 8s 5s 16 18 mph 1020mb 71f 64f
3:50pm 4.5ft 8s 5s 13 18 mph 1019.8mb 71f 64f
2:50pm 5ft 8s 5s 13 22 mph 1020mb 71f 64f
1:50pm 5.5ft 7s 5s 13 18 mph 1020.3mb 71f 64f
12:50pm 5ft 7s 5s 16 20 mph 1020.9mb 71f 65f
11:50am 5ft 7s 5s 16 20 mph 1021.5mb 71f 65f
10:50am 5ft 6s 5s 18 22 mph 1022mb 70f 66f
9:50am 5ft 7s 5s 18 22 mph 1022.1mb 70f 66f
8:50am 5ft 7s 5s 18 20 mph 1021.9mb 71f 66f
7:50am 5.5ft 7s 5s 16 20 mph 1021.7mb 71f 67f
6:50am 5ft 6s 5s 16 20 mph 1021.3mb 71f 66f
5:50am 5ft 6s 5s 16 22 mph 1020.8mb 71f 66f
4:50am 5ft 6s 5s 16 22 mph 1020.5mb 71f 66f
3:50am 5ft 6s 5s 18 22 mph 1020.2mb 71f 66f
2:50am 4.5ft 6s 5s 20 25 mph 1019.9mb 71f 67f
1:50am 4.5ft 7s 5s 18 22 mph 1020.1mb 71f 68f
12:50am 4.5ft 6s 5s 18 22 mph 1020mb 71f 68f
Mon 02/20 11:50pm 4.5ft 6s 5s 18 22 mph 1020.2mb 71f 69f
10:50pm 4.5ft 6s 5s 18 22 mph 1020.1mb 71f 69f
9:50pm 4.5ft 6s 5s 18 22 mph 1020.3mb 71f 69f
8:50pm 4.5ft 6s 5s 16 20 mph 1020.3mb 71f 69f
7:50pm 4.5ft 7s 5s 20 22 mph 1020.1mb 71f 70f
6:50pm 4.5ft 7s 5s 20 22 mph 1019.8mb 71f 70f
5:50pm 4.5ft 7s 5s 20 22 mph 1019.4mb 71f 70f
4:50pm 5ft 6s 5s 18 20 mph 1018.9mb 71f 70f
3:50pm 5ft 7s 5s 18 20 mph 1018.5mb 71f 70f
2:50pm 5ft 7s 5s 18 20 mph 1018.1mb 71f 70f
1:50pm 6ft 6s 5s 18 20 mph 1018.2mb 71f 70f
12:50pm 5ft 7s 5s 20 22 mph 1018.3mb 71f 70f
11:50am 6ft 6s 5s 18 20 mph 1019.6mb 71f 70f
10:50am 6ft 6s 5s 18 20 mph 1019.6mb 71f 70f
9:50am 5.5ft 6s 5s 20 22 mph 1019.4mb 71f 70f
8:50am 5.5ft 7s 5s 22 27 mph 1019.1mb 71f 71f
7:50am 5.5ft 7s 5s 22 25 mph 1018.3mb 71f 71f
6:50am 5ft 7s 5s 20 22 mph 1017.7mb 71f 71f
5:50am 5.5ft 7s 5s 20 25 mph 1016.8mb 71f 71f
4:50am 5.5ft 7s 5s 22 27 mph 1015.9mb 72f 71f
3:50am 5.5ft 7s 5s 22 25 mph 1015.3mb 72f 70f
2:50am 5.5ft 7s 5s 22 27 mph 1014.6mb 72f 70f
1:50am 6ft 7s 5s 22 25 mph 1014.8mb 71f 70f
12:50am 5.5ft 7s 5s 20 22 mph 1015.4mb 71f 70f
Sun 02/19 11:50pm 6ft 7s 5s 18 22 mph 1015.6mb 71f 70f
10:50pm 5ft 7s 5s 18 25 mph 1015.4mb 71f 70f